sensor_id;sensor_type;location;lat;lon;timestamp;P1;durP1;ratioP1;P2;durP2;ratioP2
48751;SDS011;34544;48.836;9.174;2023-02-28T00:00:19;2.93;;;1.90;;
48751;SDS011;34544;48.836;9.174;2023-02-28T00:02:46;4.47;;;2.07;;
48751;SDS011;34544;48.836;9.174;2023-02-28T00:05:12;4.83;;;2.17;;
48751;SDS011;34544;48.836;9.174;2023-02-28T00:07:40;4.60;;;2.40;;
48751;SDS011;34544;48.836;9.174;2023-02-28T00:10:07;3.23;;;2.00;;
48751;SDS011;34544;48.836;9.174;2023-02-28T00:12:35;3.83;;;1.97;;
48751;SDS011;34544;48.836;9.174;2023-02-28T00:15:01;3.67;;;2.33;;
48751;SDS011;34544;48.836;9.174;2023-02-28T00:17:30;3.57;;;1.97;;
48751;SDS011;34544;48.836;9.174;2023-02-28T00:19:55;5.63;;;2.40;;
48751;SDS011;34544;48.836;9.174;2023-02-28T00:22:21;4.27;;;2.37;;
48751;SDS011;34544;48.836;9.174;2023-02-28T00:24:47;4.07;;;2.33;;
48751;SDS011;34544;48.836;9.174;2023-02-28T00:27:13;4.10;;;2.90;;
48751;SDS011;34544;48.836;9.174;2023-02-28T00:29:39;3.93;;;2.40;;
48751;SDS011;34544;48.836;9.174;2023-02-28T00:32:05;3.60;;;2.20;;
48751;SDS011;34544;48.836;9.174;2023-02-28T00:34:31;7.83;;;2.30;;
48751;SDS011;34544;48.836;9.174;2023-02-28T00:37:06;8.00;;;2.77;;
48751;SDS011;34544;48.836;9.174;2023-02-28T00:39:34;3.40;;;2.60;;
48751;SDS011;34544;48.836;9.174;2023-02-28T00:42:01;4.53;;;2.57;;
48751;SDS011;34544;48.836;9.174;2023-02-28T00:44:27;4.30;;;2.60;;
48751;SDS011;34544;48.836;9.174;2023-02-28T00:46:53;5.00;;;2.70;;
48751;SDS011;34544;48.836;9.174;2023-02-28T00:49:23;5.13;;;2.13;;
48751;SDS011;34544;48.836;9.174;2023-02-28T00:51:50;5.03;;;2.67;;
48751;SDS011;34544;48.836;9.174;2023-02-28T00:54:18;4.73;;;2.40;;
48751;SDS011;34544;48.836;9.174;2023-02-28T00:56:46;4.77;;;2.50;;
48751;SDS011;34544;48.836;9.174;2023-02-28T00:59:13;4.13;;;2.90;;
48751;SDS011;34544;48.836;9.174;2023-02-28T01:01:39;4.67;;;3.00;;
48751;SDS011;34544;48.836;9.174;2023-02-28T01:04:05;5.70;;;3.10;;
48751;SDS011;34544;48.836;9.174;2023-02-28T01:06:31;6.37;;;2.97;;
48751;SDS011;34544;48.836;9.174;2023-02-28T01:08:57;4.20;;;2.60;;
48751;SDS011;34544;48.836;9.174;2023-02-28T01:11:23;4.30;;;2.67;;
48751;SDS011;34544;48.836;9.174;2023-02-28T01:13:51;6.20;;;3.10;;
48751;SDS011;34544;48.836;9.174;2023-02-28T01:16:17;7.33;;;3.07;;
48751;SDS011;34544;48.836;9.174;2023-02-28T01:18:44;6.03;;;2.80;;
48751;SDS011;34544;48.836;9.174;2023-02-28T01:21:11;6.80;;;2.73;;
48751;SDS011;34544;48.836;9.174;2023-02-28T01:23:41;5.10;;;3.03;;
48751;SDS011;34544;48.836;9.174;2023-02-28T01:26:13;4.67;;;3.37;;
48751;SDS011;34544;48.836;9.174;2023-02-28T01:28:40;3.73;;;2.70;;
48751;SDS011;34544;48.836;9.174;2023-02-28T01:31:06;4.93;;;3.33;;
48751;SDS011;34544;48.836;9.174;2023-02-28T01:33:33;7.07;;;2.90;;
48751;SDS011;34544;48.836;9.174;2023-02-28T01:36:06;6.43;;;3.57;;
48751;SDS011;34544;48.836;9.174;2023-02-28T01:38:36;4.43;;;3.13;;
48751;SDS011;34544;48.836;9.174;2023-02-28T01:41:01;6.97;;;3.60;;
48751;SDS011;34544;48.836;9.174;2023-02-28T01:43:28;7.57;;;3.80;;
48751;SDS011;34544;48.836;9.174;2023-02-28T01:45:56;4.40;;;3.13;;
48751;SDS011;34544;48.836;9.174;2023-02-28T01:48:26;5.00;;;2.87;;
48751;SDS011;34544;48.836;9.174;2023-02-28T01:51:01;7.07;;;3.07;;
48751;SDS011;34544;48.836;9.174;2023-02-28T01:53:32;5.17;;;3.33;;
48751;SDS011;34544;48.836;9.174;2023-02-28T01:56:06;6.60;;;3.67;;
48751;SDS011;34544;48.836;9.174;2023-02-28T01:58:34;4.90;;;3.00;;
48751;SDS011;34544;48.836;9.174;2023-02-28T02:01:00;5.60;;;3.90;;
48751;SDS011;34544;48.836;9.174;2023-02-28T02:03:27;4.87;;;3.53;;
48751;SDS011;34544;48.836;9.174;2023-02-28T02:05:55;6.97;;;3.97;;
48751;SDS011;34544;48.836;9.174;2023-02-28T02:08:25;6.67;;;3.53;;
48751;SDS011;34544;48.836;9.174;2023-02-28T02:16:26;5.50;;;3.83;;
48751;SDS011;34544;48.836;9.174;2023-02-28T02:22:12;4.60;;;3.47;;
48751;SDS011;34544;48.836;9.174;2023-02-28T02:25:14;4.10;;;3.43;;
48751;SDS011;34544;48.836;9.174;2023-02-28T02:38:47;6.45;;;3.55;;
48751;SDS011;34544;48.836;9.174;2023-02-28T02:41:24;3.20;;;2.80;;
48751;SDS011;34544;48.836;9.174;2023-02-28T02:44:07;5.37;;;3.57;;
48751;SDS011;34544;48.836;9.174;2023-02-28T02:47:02;7.30;;;3.70;;
48751;SDS011;34544;48.836;9.174;2023-02-28T02:49:41;8.10;;;4.07;;
48751;SDS011;34544;48.836;9.174;2023-02-28T02:52:11;7.90;;;3.87;;
48751;SDS011;34544;48.836;9.174;2023-02-28T02:54:40;6.83;;;3.87;;
48751;SDS011;34544;48.836;9.174;2023-02-28T02:57:13;6.83;;;4.10;;
48751;SDS011;34544;48.836;9.174;2023-02-28T02:59:49;6.77;;;4.03;;
48751;SDS011;34544;48.836;9.174;2023-02-28T03:02:18;6.60;;;4.17;;
48751;SDS011;34544;48.836;9.174;2023-02-28T03:04:53;7.00;;;4.10;;
48751;SDS011;34544;48.836;9.174;2023-02-28T03:07:26;5.23;;;3.43;;
48751;SDS011;34544;48.836;9.174;2023-02-28T03:09:53;4.33;;;3.37;;
48751;SDS011;34544;48.836;9.174;2023-02-28T03:12:20;7.27;;;3.60;;
48751;SDS011;34544;48.836;9.174;2023-02-28T03:15:26;4.17;;;3.60;;
48751;SDS011;34544;48.836;9.174;2023-02-28T03:18:01;5.77;;;3.27;;
48751;SDS011;34544;48.836;9.174;2023-02-28T03:20:37;6.47;;;4.30;;
48751;SDS011;34544;48.836;9.174;2023-02-28T03:26:22;6.15;;;3.33;;
48751;SDS011;34544;48.836;9.174;2023-02-28T03:28:57;7.73;;;4.47;;
48751;SDS011;34544;48.836;9.174;2023-02-28T03:32:02;8.47;;;3.93;;
48751;SDS011;34544;48.836;9.174;2023-02-28T03:34:34;5.63;;;4.17;;
48751;SDS011;34544;48.836;9.174;2023-02-28T03:37:08;7.25;;;3.90;;
48751;SDS011;34544;48.836;9.174;2023-02-28T03:39:49;7.80;;;3.85;;
48751;SDS011;34544;48.836;9.174;2023-02-28T03:42:29;6.55;;;4.38;;
48751;SDS011;34544;48.836;9.174;2023-02-28T03:44:57;11.32;;;4.28;;
48751;SDS011;34544;48.836;9.174;2023-02-28T03:47:39;7.57;;;4.07;;
48751;SDS011;34544;48.836;9.174;2023-02-28T03:50:16;8.65;;;4.30;;
48751;SDS011;34544;48.836;9.174;2023-02-28T03:52:50;7.60;;;4.70;;
48751;SDS011;34544;48.836;9.174;2023-02-28T03:55:26;5.50;;;3.60;;
48751;SDS011;34544;48.836;9.174;2023-02-28T03:57:58;7.00;;;3.88;;
48751;SDS011;34544;48.836;9.174;2023-02-28T04:00:31;7.63;;;4.50;;
48751;SDS011;34544;48.836;9.174;2023-02-28T04:03:00;6.43;;;4.25;;
48751;SDS011;34544;48.836;9.174;2023-02-28T04:05:27;9.07;;;4.55;;
48751;SDS011;34544;48.836;9.174;2023-02-28T04:07:54;6.10;;;4.40;;
48751;SDS011;34544;48.836;9.174;2023-02-28T04:10:28;6.00;;;3.72;;
48751;SDS011;34544;48.836;9.174;2023-02-28T04:12:53;8.57;;;4.05;;
48751;SDS011;34544;48.836;9.174;2023-02-28T04:15:19;5.53;;;4.07;;
48751;SDS011;34544;48.836;9.174;2023-02-28T04:17:47;6.72;;;3.97;;
48751;SDS011;34544;48.836;9.174;2023-02-28T04:20:13;8.05;;;4.40;;
48751;SDS011;34544;48.836;9.174;2023-02-28T04:22:39;5.97;;;4.53;;
48751;SDS011;34544;48.836;9.174;2023-02-28T04:25:05;8.87;;;4.63;;
48751;SDS011;34544;48.836;9.174;2023-02-28T04:27:31;5.87;;;4.43;;
48751;SDS011;34544;48.836;9.174;2023-02-28T04:29:56;7.05;;;4.40;;
48751;SDS011;34544;48.836;9.174;2023-02-28T04:32:22;6.20;;;4.28;;
48751;SDS011;34544;48.836;9.174;2023-02-28T04:34:47;7.57;;;5.22;;
48751;SDS011;34544;48.836;9.174;2023-02-28T04:37:13;6.38;;;4.63;;
48751;SDS011;34544;48.836;9.174;2023-02-28T04:39:39;8.43;;;4.57;;
48751;SDS011;34544;48.836;9.174;2023-02-28T04:42:05;5.70;;;4.13;;
48751;SDS011;34544;48.836;9.174;2023-02-28T04:44:31;7.05;;;4.90;;
48751;SDS011;34544;48.836;9.174;2023-02-28T04:46:57;6.03;;;4.63;;
48751;SDS011;34544;48.836;9.174;2023-02-28T04:49:22;6.82;;;5.15;;
48751;SDS011;34544;48.836;9.174;2023-02-28T04:51:48;8.77;;;4.63;;
48751;SDS011;34544;48.836;9.174;2023-02-28T04:54:15;8.30;;;4.25;;
48751;SDS011;34544;48.836;9.174;2023-02-28T04:56:41;7.25;;;5.50;;
48751;SDS011;34544;48.836;9.174;2023-02-28T04:59:07;8.60;;;4.75;;
48751;SDS011;34544;48.836;9.174;2023-02-28T05:01:33;6.50;;;4.60;;
48751;SDS011;34544;48.836;9.174;2023-02-28T05:04:00;7.55;;;4.63;;
48751;SDS011;34544;48.836;9.174;2023-02-28T05:06:27;8.93;;;4.32;;
48751;SDS011;34544;48.836;9.174;2023-02-28T05:08:55;8.00;;;4.70;;
48751;SDS011;34544;48.836;9.174;2023-02-28T05:11:25;9.98;;;4.90;;
48751;SDS011;34544;48.836;9.174;2023-02-28T05:13:59;7.72;;;4.63;;
48751;SDS011;34544;48.836;9.174;2023-02-28T05:16:30;6.68;;;4.57;;
48751;SDS011;34544;48.836;9.174;2023-02-28T05:18:56;5.95;;;4.15;;
48751;SDS011;34544;48.836;9.174;2023-02-28T05:24:19;7.10;;;4.50;;
48751;SDS011;34544;48.836;9.174;2023-02-28T05:26:48;9.52;;;4.88;;
48751;SDS011;34544;48.836;9.174;2023-02-28T05:29:16;8.73;;;5.20;;
48751;SDS011;34544;48.836;9.174;2023-02-28T05:31:41;9.43;;;4.95;;
48751;SDS011;34544;48.836;9.174;2023-02-28T05:34:07;8.43;;;5.97;;
48751;SDS011;34544;48.836;9.174;2023-02-28T05:36:33;6.60;;;4.65;;
48751;SDS011;34544;48.836;9.174;2023-02-28T05:39:01;8.65;;;5.38;;
48751;SDS011;34544;48.836;9.174;2023-02-28T05:41:29;11.82;;;5.95;;
48751;SDS011;34544;48.836;9.174;2023-02-28T05:43:54;8.98;;;4.75;;
48751;SDS011;34544;48.836;9.174;2023-02-28T05:46:22;8.23;;;5.13;;
48751;SDS011;34544;48.836;9.174;2023-02-28T05:48:48;7.35;;;5.45;;
48751;SDS011;34544;48.836;9.174;2023-02-28T05:51:14;9.68;;;6.15;;
48751;SDS011;34544;48.836;9.174;2023-02-28T05:53:39;8.10;;;5.15;;
48751;SDS011;34544;48.836;9.174;2023-02-28T05:56:05;10.93;;;5.43;;
48751;SDS011;34544;48.836;9.174;2023-02-28T05:58:31;6.72;;;4.63;;
48751;SDS011;34544;48.836;9.174;2023-02-28T06:00:57;12.57;;;6.78;;
48751;SDS011;34544;48.836;9.174;2023-02-28T06:03:23;7.63;;;4.95;;
48751;SDS011;34544;48.836;9.174;2023-02-28T06:05:49;10.23;;;5.55;;
48751;SDS011;34544;48.836;9.174;2023-02-28T06:08:15;9.18;;;5.15;;
48751;SDS011;34544;48.836;9.174;2023-02-28T06:10:41;5.60;;;4.30;;
48751;SDS011;34544;48.836;9.174;2023-02-28T06:13:07;8.57;;;5.65;;
48751;SDS011;34544;48.836;9.174;2023-02-28T06:15:33;10.73;;;5.57;;
48751;SDS011;34544;48.836;9.174;2023-02-28T06:17:58;11.85;;;6.30;;
48751;SDS011;34544;48.836;9.174;2023-02-28T06:20:25;10.37;;;5.30;;
48751;SDS011;34544;48.836;9.174;2023-02-28T06:22:56;10.75;;;5.72;;
48751;SDS011;34544;48.836;9.174;2023-02-28T06:25:23;10.70;;;5.43;;
48751;SDS011;34544;48.836;9.174;2023-02-28T06:27:50;10.93;;;5.80;;
48751;SDS011;34544;48.836;9.174;2023-02-28T06:30:16;8.50;;;5.38;;
48751;SDS011;34544;48.836;9.174;2023-02-28T06:32:42;8.95;;;5.60;;
48751;SDS011;34544;48.836;9.174;2023-02-28T06:35:08;8.15;;;5.22;;
48751;SDS011;34544;48.836;9.174;2023-02-28T06:37:35;9.32;;;6.10;;
48751;SDS011;34544;48.836;9.174;2023-02-28T06:40:00;8.07;;;5.68;;
48751;SDS011;34544;48.836;9.174;2023-02-28T06:42:26;7.80;;;5.53;;
48751;SDS011;34544;48.836;9.174;2023-02-28T06:44:54;9.65;;;5.30;;
48751;SDS011;34544;48.836;9.174;2023-02-28T06:47:20;6.45;;;5.07;;
48751;SDS011;34544;48.836;9.174;2023-02-28T06:49:47;8.05;;;6.10;;
48751;SDS011;34544;48.836;9.174;2023-02-28T06:52:13;9.02;;;6.15;;
48751;SDS011;34544;48.836;9.174;2023-02-28T06:54:40;8.48;;;5.78;;
48751;SDS011;34544;48.836;9.174;2023-02-28T06:57:06;9.27;;;6.55;;
48751;SDS011;34544;48.836;9.174;2023-02-28T06:59:31;11.52;;;5.68;;
48751;SDS011;34544;48.836;9.174;2023-02-28T07:01:57;10.82;;;6.60;;
48751;SDS011;34544;48.836;9.174;2023-02-28T07:04:23;8.27;;;6.07;;
48751;SDS011;34544;48.836;9.174;2023-02-28T07:06:48;8.88;;;5.90;;
48751;SDS011;34544;48.836;9.174;2023-02-28T07:09:14;8.98;;;5.38;;
48751;SDS011;34544;48.836;9.174;2023-02-28T07:11:40;9.88;;;6.22;;
48751;SDS011;34544;48.836;9.174;2023-02-28T07:14:08;9.77;;;7.00;;
48751;SDS011;34544;48.836;9.174;2023-02-28T07:16:34;10.13;;;6.32;;
48751;SDS011;34544;48.836;9.174;2023-02-28T07:19:00;11.10;;;6.22;;
48751;SDS011;34544;48.836;9.174;2023-02-28T07:21:26;8.52;;;5.50;;
48751;SDS011;34544;48.836;9.174;2023-02-28T07:23:51;10.60;;;5.80;;
48751;SDS011;34544;48.836;9.174;2023-02-28T07:26:17;9.60;;;6.22;;
48751;SDS011;34544;48.836;9.174;2023-02-28T07:28:45;12.80;;;6.20;;
48751;SDS011;34544;48.836;9.174;2023-02-28T07:31:12;8.30;;;6.40;;
48751;SDS011;34544;48.836;9.174;2023-02-28T07:33:39;10.95;;;6.28;;
48751;SDS011;34544;48.836;9.174;2023-02-28T07:36:07;8.15;;;5.80;;
48751;SDS011;34544;48.836;9.174;2023-02-28T07:38:38;12.13;;;6.78;;
48751;SDS011;34544;48.836;9.174;2023-02-28T07:41:04;11.02;;;5.90;;
48751;SDS011;34544;48.836;9.174;2023-02-28T07:43:30;10.07;;;6.10;;
48751;SDS011;34544;48.836;9.174;2023-02-28T07:46:04;13.10;;;6.85;;
48751;SDS011;34544;48.836;9.174;2023-02-28T07:48:31;10.07;;;5.70;;
48751;SDS011;34544;48.836;9.174;2023-02-28T07:50:57;10.02;;;6.65;;
48751;SDS011;34544;48.836;9.174;2023-02-28T07:53:24;14.82;;;6.28;;
48751;SDS011;34544;48.836;9.174;2023-02-28T07:55:50;17.13;;;8.10;;
48751;SDS011;34544;48.836;9.174;2023-02-28T07:58:16;9.05;;;6.28;;
48751;SDS011;34544;48.836;9.174;2023-02-28T08:00:41;10.68;;;6.85;;
48751;SDS011;34544;48.836;9.174;2023-02-28T08:03:10;13.82;;;7.40;;
48751;SDS011;34544;48.836;9.174;2023-02-28T08:05:40;9.02;;;6.53;;
48751;SDS011;34544;48.836;9.174;2023-02-28T08:08:06;9.63;;;6.88;;
48751;SDS011;34544;48.836;9.174;2023-02-28T08:10:33;7.93;;;5.65;;
48751;SDS011;34544;48.836;9.174;2023-02-28T08:12:59;12.48;;;6.13;;
48751;SDS011;34544;48.836;9.174;2023-02-28T08:15:25;10.77;;;6.65;;
48751;SDS011;34544;48.836;9.174;2023-02-28T08:17:50;10.40;;;6.85;;
48751;SDS011;34544;48.836;9.174;2023-02-28T08:20:16;10.02;;;5.82;;
48751;SDS011;34544;48.836;9.174;2023-02-28T08:22:42;8.93;;;6.60;;
48751;SDS011;34544;48.836;9.174;2023-02-28T08:25:08;12.27;;;7.53;;
48751;SDS011;34544;48.836;9.174;2023-02-28T08:27:34;12.35;;;8.18;;
48751;SDS011;34544;48.836;9.174;2023-02-28T08:30:00;9.50;;;6.80;;
48751;SDS011;34544;48.836;9.174;2023-02-28T08:32:25;9.15;;;6.05;;
48751;SDS011;34544;48.836;9.174;2023-02-28T08:34:51;10.52;;;6.22;;
48751;SDS011;34544;48.836;9.174;2023-02-28T08:37:17;13.68;;;6.43;;
48751;SDS011;34544;48.836;9.174;2023-02-28T08:39:42;9.68;;;5.95;;
48751;SDS011;34544;48.836;9.174;2023-02-28T08:42:08;9.85;;;6.72;;
48751;SDS011;34544;48.836;9.174;2023-02-28T08:44:34;10.77;;;7.65;;
48751;SDS011;34544;48.836;9.174;2023-02-28T08:47:00;11.07;;;7.57;;
48751;SDS011;34544;48.836;9.174;2023-02-28T08:49:25;11.35;;;7.72;;
48751;SDS011;34544;48.836;9.174;2023-02-28T08:51:51;10.05;;;7.32;;
48751;SDS011;34544;48.836;9.174;2023-02-28T08:54:17;13.27;;;7.90;;
48751;SDS011;34544;48.836;9.174;2023-02-28T08:56:44;14.18;;;7.07;;
48751;SDS011;34544;48.836;9.174;2023-02-28T08:59:12;13.63;;;7.18;;
48751;SDS011;34544;48.836;9.174;2023-02-28T09:01:38;14.93;;;7.35;;
48751;SDS011;34544;48.836;9.174;2023-02-28T09:04:06;12.07;;;7.32;;
48751;SDS011;34544;48.836;9.174;2023-02-28T09:06:33;9.73;;;7.55;;
48751;SDS011;34544;48.836;9.174;2023-02-28T09:08:59;10.52;;;6.90;;
48751;SDS011;34544;48.836;9.174;2023-02-28T09:11:26;10.55;;;7.30;;
48751;SDS011;34544;48.836;9.174;2023-02-28T09:13:52;15.30;;;8.27;;
48751;SDS011;34544;48.836;9.174;2023-02-28T09:16:18;13.95;;;8.13;;
48751;SDS011;34544;48.836;9.174;2023-02-28T09:18:44;11.30;;;7.20;;
48751;SDS011;34544;48.836;9.174;2023-02-28T09:21:11;11.93;;;7.40;;
48751;SDS011;34544;48.836;9.174;2023-02-28T09:23:42;12.65;;;7.28;;
48751;SDS011;34544;48.836;9.174;2023-02-28T09:26:13;13.43;;;7.53;;
48751;SDS011;34544;48.836;9.174;2023-02-28T09:28:47;13.43;;;8.02;;
48751;SDS011;34544;48.836;9.174;2023-02-28T09:31:13;11.38;;;7.70;;
48751;SDS011;34544;48.836;9.174;2023-02-28T09:33:42;12.85;;;8.20;;
48751;SDS011;34544;48.836;9.174;2023-02-28T09:36:08;14.80;;;8.15;;
48751;SDS011;34544;48.836;9.174;2023-02-28T09:38:33;13.85;;;8.38;;
48751;SDS011;34544;48.836;9.174;2023-02-28T09:41:01;14.10;;;7.30;;
48751;SDS011;34544;48.836;9.174;2023-02-28T09:43:33;13.60;;;8.77;;
48751;SDS011;34544;48.836;9.174;2023-02-28T09:48:49;14.35;;;8.93;;
48751;SDS011;34544;48.836;9.174;2023-02-28T09:51:23;14.32;;;9.35;;
48751;SDS011;34544;48.836;9.174;2023-02-28T09:54:00;14.55;;;8.23;;
48751;SDS011;34544;48.836;9.174;2023-02-28T09:56:32;11.05;;;7.95;;
48751;SDS011;34544;48.836;9.174;2023-02-28T09:59:05;10.77;;;8.32;;
48751;SDS011;34544;48.836;9.174;2023-02-28T10:04:40;12.68;;;9.50;;
48751;SDS011;34544;48.836;9.174;2023-02-28T10:09:53;14.38;;;8.90;;
48751;SDS011;34544;48.836;9.174;2023-02-28T10:12:23;14.43;;;8.70;;
48751;SDS011;34544;48.836;9.174;2023-02-28T10:14:51;12.18;;;8.65;;
48751;SDS011;34544;48.836;9.174;2023-02-28T10:17:19;11.77;;;8.05;;
48751;SDS011;34544;48.836;9.174;2023-02-28T10:22:18;13.93;;;9.00;;
48751;SDS011;34544;48.836;9.174;2023-02-28T10:24:49;12.98;;;8.68;;
48751;SDS011;34544;48.836;9.174;2023-02-28T10:27:20;12.95;;;8.38;;
48751;SDS011;34544;48.836;9.174;2023-02-28T10:29:52;12.23;;;8.38;;
48751;SDS011;34544;48.836;9.174;2023-02-28T10:32:32;10.18;;;7.38;;
48751;SDS011;34544;48.836;9.174;2023-02-28T10:35:00;17.70;;;10.02;;
48751;SDS011;34544;48.836;9.174;2023-02-28T10:37:27;16.08;;;8.52;;
48751;SDS011;34544;48.836;9.174;2023-02-28T10:39:53;12.45;;;8.75;;
48751;SDS011;34544;48.836;9.174;2023-02-28T10:42:20;11.23;;;7.82;;
48751;SDS011;34544;48.836;9.174;2023-02-28T10:48:04;12.80;;;8.32;;
48751;SDS011;34544;48.836;9.174;2023-02-28T10:52:58;13.40;;;7.97;;
48751;SDS011;34544;48.836;9.174;2023-02-28T10:55:41;12.57;;;8.52;;
48751;SDS011;34544;48.836;9.174;2023-02-28T10:58:23;13.75;;;8.95;;
48751;SDS011;34544;48.836;9.174;2023-02-28T11:00:49;12.88;;;8.70;;
48751;SDS011;34544;48.836;9.174;2023-02-28T11:03:31;11.75;;;8.10;;
48751;SDS011;34544;48.836;9.174;2023-02-28T11:05:58;10.80;;;7.80;;
48751;SDS011;34544;48.836;9.174;2023-02-28T11:08:30;9.70;;;8.23;;
48751;SDS011;34544;48.836;9.174;2023-02-28T11:10:58;16.63;;;9.73;;
48751;SDS011;34544;48.836;9.174;2023-02-28T11:13:27;12.38;;;8.52;;
48751;SDS011;34544;48.836;9.174;2023-02-28T11:15:59;10.93;;;8.13;;
48751;SDS011;34544;48.836;9.174;2023-02-28T11:18:29;10.50;;;7.68;;
48751;SDS011;34544;48.836;9.174;2023-02-28T11:21:00;13.80;;;8.60;;
48751;SDS011;34544;48.836;9.174;2023-02-28T11:23:28;18.23;;;9.65;;
48751;SDS011;34544;48.836;9.174;2023-02-28T11:25:58;12.32;;;8.38;;
48751;SDS011;34544;48.836;9.174;2023-02-28T11:28:30;10.55;;;8.23;;
48751;SDS011;34544;48.836;9.174;2023-02-28T11:31:04;10.52;;;7.78;;
48751;SDS011;34544;48.836;9.174;2023-02-28T11:36:19;9.95;;;8.40;;
48751;SDS011;34544;48.836;9.174;2023-02-28T11:38:52;12.60;;;8.68;;
48751;SDS011;34544;48.836;9.174;2023-02-28T11:44:16;9.52;;;7.63;;
48751;SDS011;34544;48.836;9.174;2023-02-28T11:46:49;9.48;;;8.27;;
48751;SDS011;34544;48.836;9.174;2023-02-28T12:11:50;12.55;;;7.80;;
48751;SDS011;34544;48.836;9.174;2023-02-28T12:19:44;11.45;;;7.75;;
48751;SDS011;34544;48.836;9.174;2023-02-28T12:27:21;9.93;;;7.53;;
48751;SDS011;34544;48.836;9.174;2023-02-28T12:32:30;9.45;;;8.05;;
48751;SDS011;34544;48.836;9.174;2023-02-28T12:35:11;8.98;;;7.43;;
48751;SDS011;34544;48.836;9.174;2023-02-28T12:40:28;8.68;;;7.65;;
48751;SDS011;34544;48.836;9.174;2023-02-28T12:45:46;8.40;;;7.53;;
48751;SDS011;34544;48.836;9.174;2023-02-28T12:48:52;8.50;;;7.68;;
48751;SDS011;34544;48.836;9.174;2023-02-28T12:51:21;9.05;;;7.45;;
48751;SDS011;34544;48.836;9.174;2023-02-28T12:56:33;8.13;;;7.07;;
48751;SDS011;34544;48.836;9.174;2023-02-28T12:59:23;8.77;;;7.47;;
48751;SDS011;34544;48.836;9.174;2023-02-28T13:07:54;9.50;;;7.68;;
48751;SDS011;34544;48.836;9.174;2023-02-28T13:10:23;13.80;;;8.15;;
48751;SDS011;34544;48.836;9.174;2023-02-28T13:12:52;7.95;;;7.05;;
48751;SDS011;34544;48.836;9.174;2023-02-28T13:15:21;11.25;;;7.35;;
48751;SDS011;34544;48.836;9.174;2023-02-28T13:17:53;19.30;;;7.57;;
48751;SDS011;34544;48.836;9.174;2023-02-28T13:20:24;8.68;;;6.95;;
48751;SDS011;34544;48.836;9.174;2023-02-28T13:22:53;9.05;;;7.40;;
48751;SDS011;34544;48.836;9.174;2023-02-28T13:27:58;15.27;;;9.27;;
48751;SDS011;34544;48.836;9.174;2023-02-28T13:38:54;8.15;;;6.93;;
48751;SDS011;34544;48.836;9.174;2023-02-28T13:41:43;7.65;;;6.18;;
48751;SDS011;34544;48.836;9.174;2023-02-28T13:51:55;8.35;;;7.38;;
48751;SDS011;34544;48.836;9.174;2023-02-28T13:57:36;8.07;;;6.93;;
48751;SDS011;34544;48.836;9.174;2023-02-28T14:00:21;10.13;;;7.50;;
48751;SDS011;34544;48.836;9.174;2023-02-28T14:03:06;9.30;;;7.68;;
48751;SDS011;34544;48.836;9.174;2023-02-28T14:05:44;8.35;;;6.65;;
48751;SDS011;34544;48.836;9.174;2023-02-28T14:08:17;7.70;;;6.47;;
48751;SDS011;34544;48.836;9.174;2023-02-28T14:10:48;8.20;;;7.40;;
48751;SDS011;34544;48.836;9.174;2023-02-28T14:16:13;7.70;;;6.45;;
48751;SDS011;34544;48.836;9.174;2023-02-28T14:18:41;8.32;;;7.40;;
48751;SDS011;34544;48.836;9.174;2023-02-28T14:21:25;8.18;;;6.53;;
48751;SDS011;34544;48.836;9.174;2023-02-28T14:24:13;9.02;;;6.55;;
48751;SDS011;34544;48.836;9.174;2023-02-28T14:36:01;9.77;;;7.22;;
48751;SDS011;34544;48.836;9.174;2023-02-28T14:38:51;8.20;;;6.75;;
48751;SDS011;34544;48.836;9.174;2023-02-28T14:41:24;9.02;;;7.13;;
48751;SDS011;34544;48.836;9.174;2023-02-28T14:44:03;12.40;;;8.02;;
48751;SDS011;34544;48.836;9.174;2023-02-28T14:46:40;8.95;;;7.30;;
48751;SDS011;34544;48.836;9.174;2023-02-28T14:49:12;8.25;;;6.90;;
48751;SDS011;34544;48.836;9.174;2023-02-28T14:51:43;10.57;;;6.43;;
48751;SDS011;34544;48.836;9.174;2023-02-28T14:54:12;8.82;;;7.53;;
48751;SDS011;34544;48.836;9.174;2023-02-28T14:56:40;9.25;;;7.20;;
48751;SDS011;34544;48.836;9.174;2023-02-28T14:59:22;7.15;;;6.40;;
48751;SDS011;34544;48.836;9.174;2023-02-28T15:02:15;10.18;;;6.57;;
48751;SDS011;34544;48.836;9.174;2023-02-28T15:04:52;9.73;;;8.13;;
48751;SDS011;34544;48.836;9.174;2023-02-28T15:07:23;8.80;;;7.60;;
48751;SDS011;34544;48.836;9.174;2023-02-28T15:10:09;9.68;;;7.18;;
48751;SDS011;34544;48.836;9.174;2023-02-28T15:12:39;7.95;;;7.15;;
48751;SDS011;34544;48.836;9.174;2023-02-28T15:15:14;9.65;;;7.65;;
48751;SDS011;34544;48.836;9.174;2023-02-28T15:17:41;12.93;;;7.53;;
48751;SDS011;34544;48.836;9.174;2023-02-28T15:20:11;8.40;;;7.60;;
48751;SDS011;34544;48.836;9.174;2023-02-28T15:22:38;9.73;;;7.63;;
48751;SDS011;34544;48.836;9.174;2023-02-28T15:25:05;9.70;;;7.78;;
48751;SDS011;34544;48.836;9.174;2023-02-28T15:27:33;9.77;;;7.97;;
48751;SDS011;34544;48.836;9.174;2023-02-28T15:30:06;9.73;;;8.10;;
48751;SDS011;34544;48.836;9.174;2023-02-28T15:32:37;11.23;;;9.20;;
48751;SDS011;34544;48.836;9.174;2023-02-28T15:40:42;10.88;;;8.05;;
48751;SDS011;34544;48.836;9.174;2023-02-28T15:43:31;9.38;;;8.02;;
48751;SDS011;34544;48.836;9.174;2023-02-28T15:46:03;10.75;;;8.75;;
48751;SDS011;34544;48.836;9.174;2023-02-28T15:48:53;9.73;;;8.38;;
48751;SDS011;34544;48.836;9.174;2023-02-28T15:51:28;10.05;;;8.65;;
48751;SDS011;34544;48.836;9.174;2023-02-28T15:54:08;10.57;;;8.55;;
48751;SDS011;34544;48.836;9.174;2023-02-28T15:56:43;13.30;;;10.85;;
48751;SDS011;34544;48.836;9.174;2023-02-28T15:59:16;12.65;;;8.63;;
48751;SDS011;34544;48.836;9.174;2023-02-28T16:02:01;10.05;;;8.05;;
48751;SDS011;34544;48.836;9.174;2023-02-28T16:05:00;9.73;;;8.25;;
48751;SDS011;34544;48.836;9.174;2023-02-28T16:07:33;13.10;;;7.82;;
48751;SDS011;34544;48.836;9.174;2023-02-28T16:10:04;14.80;;;9.20;;
48751;SDS011;34544;48.836;9.174;2023-02-28T16:12:32;11.98;;;8.23;;
48751;SDS011;34544;48.836;9.174;2023-02-28T16:15:01;11.55;;;8.50;;
48751;SDS011;34544;48.836;9.174;2023-02-28T16:17:47;13.10;;;7.90;;
48751;SDS011;34544;48.836;9.174;2023-02-28T16:20:21;11.70;;;8.38;;
48751;SDS011;34544;48.836;9.174;2023-02-28T16:22:50;11.60;;;8.73;;
48751;SDS011;34544;48.836;9.174;2023-02-28T16:25:17;12.00;;;8.77;;
48751;SDS011;34544;48.836;9.174;2023-02-28T16:27:46;10.35;;;8.68;;
48751;SDS011;34544;48.836;9.174;2023-02-28T16:30:17;12.93;;;9.02;;
48751;SDS011;34544;48.836;9.174;2023-02-28T16:32:49;13.00;;;8.95;;
48751;SDS011;34544;48.836;9.174;2023-02-28T16:35:16;13.70;;;8.55;;
48751;SDS011;34544;48.836;9.174;2023-02-28T16:37:43;12.38;;;8.95;;
48751;SDS011;34544;48.836;9.174;2023-02-28T16:40:13;14.32;;;8.80;;
48751;SDS011;34544;48.836;9.174;2023-02-28T16:42:45;19.77;;;8.57;;
48751;SDS011;34544;48.836;9.174;2023-02-28T16:45:16;11.57;;;9.27;;
48751;SDS011;34544;48.836;9.174;2023-02-28T16:47:44;13.55;;;8.98;;
48751;SDS011;34544;48.836;9.174;2023-02-28T16:50:29;11.40;;;8.85;;
48751;SDS011;34544;48.836;9.174;2023-02-28T16:52:55;11.18;;;8.88;;
48751;SDS011;34544;48.836;9.174;2023-02-28T16:55:24;14.95;;;9.07;;
48751;SDS011;34544;48.836;9.174;2023-02-28T16:57:52;14.82;;;9.10;;
48751;SDS011;34544;48.836;9.174;2023-02-28T17:00:22;14.70;;;10.02;;
48751;SDS011;34544;48.836;9.174;2023-02-28T17:02:49;14.43;;;9.35;;
48751;SDS011;34544;48.836;9.174;2023-02-28T17:05:15;17.33;;;10.90;;
48751;SDS011;34544;48.836;9.174;2023-02-28T17:07:43;20.77;;;11.73;;
48751;SDS011;34544;48.836;9.174;2023-02-28T17:10:15;22.85;;;13.02;;
48751;SDS011;34544;48.836;9.174;2023-02-28T17:12:46;25.20;;;12.95;;
48751;SDS011;34544;48.836;9.174;2023-02-28T17:15:12;19.63;;;12.10;;
48751;SDS011;34544;48.836;9.174;2023-02-28T17:17:40;21.58;;;10.32;;